Terminal Aerodrome Forecast
Issued by NWS Pocatello, ID

Home | Current Version | Previous Version | Text Only | Print | Product List | Glossary On
Versions: 1 2 3 4 5 6 7 8 9 10 11 12 13 14 15 16 17 18 19 20 21 22 23 24
000
FTUS45 KPIH 311700
TAFIDA
TAF
KIDA 311720Z 3118/0118 22007KT P6SM SCT008 OVC015
      TEMPO 3118/3120 BKN008 OVC015
     FM312200 VRB03KT P6SM FEW008 OVC015
     FM010800 VRB03KT 4SM BR OVC004
     FM011600 VRB03KT P6SM SCT015 OVC110=

USA.gov is the U.S. government's official web portal to all federal, state and local government web resources and services.